Time;durP1;ratioP1;P1;durP2;ratioP2;P2;SDS_P1;SDS_P2;PMS_P1;PMS_P2;Temp;Humidity;BMP_temperature;BMP_pressure;BME280_temperature;BME280_humidity;BME280_pressure;Samples;Min_cycle;Max_cycle;Signal;HPM_P1;HPM_P2
2022/07/17 00:01:40;;;;;;;6.45;2.70;;;;;;;19.11;60.43;100614.78;1768007;79;21061;-57
2022/07/17 00:04:06;;;;;;;5.62;2.58;;;;;;;19.02;61.01;100615.80;1766564;80;21068;-57
2022/07/17 00:06:33;;;;;;;4.03;2.08;;;;;;;18.96;61.29;100609.82;1766767;79;21047;-57
2022/07/17 00:09:00;;;;;;;3.87;2.25;;;;;;;19.00;61.39;100611.66;1772037;80;21251;-57
2022/07/17 00:11:26;;;;;;;5.33;2.22;;;;;;;19.00;61.40;100607.16;1770005;80;21015;-58
2022/07/17 00:13:53;;;;;;;4.78;2.42;;;;;;;18.99;61.37;100613.99;1766614;79;21034;-57
2022/07/17 00:16:20;;;;;;;5.22;2.72;;;;;;;18.96;61.49;100605.82;1767170;79;21071;-57
2022/07/17 00:18:48;;;;;;;6.67;3.02;;;;;;;18.92;61.61;100605.84;1769309;79;21084;-57
2022/07/17 00:21:15;;;;;;;4.55;2.55;;;;;;;18.89;61.78;100607.01;1767093;79;21759;-58
2022/07/17 00:23:42;;;;;;;5.87;2.52;;;;;;;18.84;62.18;100614.69;1771290;80;21619;-57
2022/07/17 00:26:09;;;;;;;5.80;2.85;;;;;;;18.80;62.30;100613.86;1770717;79;21062;-57
2022/07/17 00:28:35;;;;;;;6.85;2.83;;;;;;;18.78;62.42;100601.19;1769170;79;21668;-57
2022/07/17 00:31:03;;;;;;;5.67;2.72;;;;;;;18.84;62.44;100590.70;1769113;79;21364;-57
2022/07/17 00:33:29;;;;;;;4.87;2.70;;;;;;;18.89;62.44;100577.68;1767043;79;21734;-58
2022/07/17 00:35:56;;;;;;;4.95;2.50;;;;;;;18.91;62.60;100572.17;1765716;79;21486;-58
2022/07/17 00:38:22;;;;;;;5.00;2.67;;;;;;;18.91;62.59;100567.70;1780940;78;21105;-57
2022/07/17 00:40:48;;;;;;;4.92;2.50;;;;;;;18.90;62.76;100570.53;1790865;78;21020;-58
2022/07/17 00:43:15;;;;;;;7.80;2.67;;;;;;;18.88;63.03;100581.88;1788634;79;21198;-57
2022/07/17 00:45:41;;;;;;;5.65;2.55;;;;;;;18.84;63.37;100586.70;1796615;78;21245;-57
2022/07/17 00:48:10;;;;;;;7.50;2.27;;;;;;;18.82;63.41;100578.53;1804037;78;21048;-57
2022/07/17 00:50:41;;;;;;;6.35;2.58;;;;;;;18.88;63.25;100580.55;1801659;78;21013;-56
2022/07/17 00:53:07;;;;;;;5.17;2.52;;;;;;;18.88;63.27;100585.87;1799601;78;21033;-57
2022/07/17 00:55:35;;;;;;;6.95;2.62;;;;;;;18.85;63.50;100593.70;1805042;78;21095;-57
2022/07/17 00:58:03;;;;;;;5.80;2.30;;;;;;;18.79;63.63;100591.69;1793368;78;21078;-57
2022/07/17 01:00:30;;;;;;;8.25;3.08;;;;;;;18.73;63.80;100585.73;1797631;78;21465;-57
2022/07/17 01:02:58;;;;;;;6.58;3.00;;;;;;;18.68;64.08;100579.56;1791650;78;21085;-57
2022/07/17 01:05:24;;;;;;;6.62;2.45;;;;;;;18.62;64.34;100581.58;1792768;78;21116;-58
2022/07/17 01:07:52;;;;;;;6.00;2.85;;;;;;;18.61;64.52;100579.93;1799821;78;21433;-57
2022/07/17 01:10:18;;;;;;;6.08;2.83;;;;;;;18.67;64.63;100577.07;1799889;78;21080;-57
2022/07/17 01:12:45;;;;;;;5.80;2.70;;;;;;;18.70;64.67;100578.06;1798419;78;21052;-58
2022/07/17 01:15:14;;;;;;;6.25;3.00;;;;;;;18.67;64.77;100561.08;1768899;80;21051;-57
2022/07/17 01:17:42;;;;;;;6.60;3.15;;;;;;;18.64;64.86;100554.24;1795362;78;21599;-58
2022/07/17 01:20:10;;;;;;;5.95;2.77;;;;;;;18.61;64.92;100545.28;1798090;78;21001;-58
2022/07/17 01:22:45;;;;;;;4.85;2.40;;;;;;;18.55;65.12;100551.29;1800165;78;21460;-58
2022/07/17 01:25:12;;;;;;;5.22;2.70;;;;;;;18.53;65.33;100562.63;1800324;78;21129;-57
2022/07/17 01:27:40;;;;;;;6.28;2.60;;;;;;;18.57;65.45;100567.93;1794002;78;21519;-58
2022/07/17 01:30:08;;;;;;;5.42;2.65;;;;;;;18.63;65.44;100566.44;1804115;78;21100;-57
2022/07/17 01:32:37;;;;;;;4.67;2.40;;;;;;;18.63;65.41;100566.44;1804319;78;21065;-57
2022/07/17 01:35:05;;;;;;;5.17;2.83;;;;;;;18.60;65.45;100549.45;1799082;78;21086;-57
2022/07/17 01:37:32;;;;;;;6.08;3.35;;;;;;;18.57;65.45;100549.28;1787534;78;21147;-57
2022/07/17 01:39:59;;;;;;;5.12;2.70;;;;;;;18.52;65.59;100556.45;1793711;78;21107;-57
2022/07/17 01:42:26;;;;;;;3.92;2.30;;;;;;;18.52;65.68;100576.94;1800791;78;21037;-56
2022/07/17 01:44:54;;;;;;;5.53;2.87;;;;;;;18.54;65.66;100578.92;1798261;78;21075;-57
2022/07/17 01:47:20;;;;;;;4.83;2.77;;;;;;;18.54;65.66;100575.78;1788375;79;21983;-59
2022/07/17 01:49:54;;;;;;;5.62;3.45;;;;;;;18.51;65.69;100581.95;1768107;80;21051;-57
2022/07/17 01:52:22;;;;;;;5.67;2.50;;;;;;;18.46;65.80;100577.61;1769837;80;21110;-57
2022/07/17 01:54:49;;;;;;;5.45;2.60;;;;;;;18.43;65.81;100572.64;1770728;80;21113;-57
2022/07/17 01:57:16;;;;;;;4.75;2.50;;;;;;;18.38;65.86;100579.30;1774437;80;21073;-58
2022/07/17 01:59:42;;;;;;;4.15;2.10;;;;;;;18.37;65.89;100568.33;1767354;79;21131;-57
2022/07/17 02:02:09;;;;;;;7.17;3.05;;;;;;;18.40;65.76;100560.48;1796635;79;20982;-57
2022/07/17 02:04:36;;;;;;;7.62;2.80;;;;;;;18.45;65.80;100562.13;1795089;78;21037;-57
2022/07/17 02:07:03;;;;;;;9.25;2.98;;;;;;;18.46;66.05;100558.95;1765412;80;21077;-57
2022/07/17 02:09:31;;;;;;;6.15;2.95;;;;;;;18.44;65.80;100554.30;1777416;79;21046;-58
2022/07/17 02:11:57;;;;;;;5.03;2.75;;;;;;;18.39;65.86;100549.48;1780749;79;21131;-58
2022/07/17 02:14:24;;;;;;;5.28;2.50;;;;;;;18.34;66.04;100555.34;1799925;78;21625;-58
2022/07/17 02:16:50;;;;;;;4.72;2.35;;;;;;;18.38;66.02;100544.66;1804770;78;21466;-57
2022/07/17 02:19:18;;;;;;;5.17;2.55;;;;;;;18.44;65.73;100544.50;1762954;79;21043;-57
2022/07/17 02:21:44;;;;;;;6.72;2.85;;;;;;;18.50;65.66;100546.46;1785055;78;21748;-58
2022/07/17 02:24:11;;;;;;;7.33;2.70;;;;;;;18.51;65.53;100549.98;1790979;78;21135;-58
2022/07/17 02:26:38;;;;;;;5.55;2.70;;;;;;;18.49;65.32;100541.30;1768660;80;21085;-58
2022/07/17 02:29:04;;;;;;;4.83;2.40;;;;;;;18.44;65.13;100548.98;1793170;78;21048;-58
2022/07/17 02:31:31;;;;;;;5.75;2.80;;;;;;;18.38;65.41;100538.52;1791238;78;21035;-58
2022/07/17 02:33:59;;;;;;;5.90;2.77;;;;;;;18.34;65.55;100538.02;1794347;78;21043;-57
2022/07/17 02:36:25;;;;;;;5.67;2.40;;;;;;;18.35;65.60;100551.66;1786357;79;21140;-58
2022/07/17 02:38:52;;;;;;;6.15;3.00;;;;;;;18.41;65.57;100561.30;1799729;78;21043;-58
2022/07/17 02:41:18;;;;;;;5.20;2.83;;;;;;;18.42;65.39;100555.80;1796554;78;21567;-58
2022/07/17 02:43:44;;;;;;;5.03;3.20;;;;;;;18.33;65.70;100546.19;1789184;78;22298;-58
2022/07/17 02:46:13;;;;;;;5.47;3.00;;;;;;;18.26;65.79;100543.36;1793787;80;21044;-58
2022/07/17 02:48:42;;;;;;;6.05;3.08;;;;;;;18.23;65.89;100535.70;1793730;78;21081;-58
2022/07/17 02:51:10;;;;;;;6.83;3.10;;;;;;;18.20;65.97;100526.20;1791305;78;21512;-58
2022/07/17 03:05:01;;;;;;;6.50;3.20;;;;;;;18.43;65.44;100538.01;1795881;78;23293;-72
2022/07/17 03:07:27;;;;;;;6.90;2.90;;;;;;;18.42;65.47;100535.00;1770138;80;21352;-71
2022/07/17 03:09:54;;;;;;;8.80;2.95;;;;;;;18.46;65.58;100528.31;1773401;80;21105;-71
2022/07/17 03:12:20;;;;;;;5.83;3.00;;;;;;;18.49;65.34;100535.97;1762439;80;20931;-72
2022/07/17 03:14:46;;;;;;;5.40;3.08;;;;;;;18.53;65.16;100543.47;1774565;80;21034;-71
2022/07/17 03:17:13;;;;;;;6.22;2.87;;;;;;;18.57;64.97;100541.28;1764847;80;21049;-72
2022/07/17 03:19:41;;;;;;;6.08;2.92;;;;;;;18.65;64.86;100548.44;1764600;80;21324;-72
2022/07/17 03:22:07;;;;;;;5.37;2.72;;;;;;;18.71;64.78;100557.05;1768557;79;21106;-72
2022/07/17 03:24:33;;;;;;;7.37;3.02;;;;;;;18.73;64.93;100551.90;1766666;80;21015;-71
2022/07/17 03:27:00;;;;;;;7.22;3.08;;;;;;;18.77;65.14;100562.22;1765479;79;21653;-70
2022/07/17 03:29:26;;;;;;;7.78;3.52;;;;;;;18.79;65.06;100556.20;1770806;79;21066;-70
2022/07/17 03:31:53;;;;;;;5.00;2.87;;;;;;;18.79;65.08;100548.21;1765726;79;21046;-69
2022/07/17 03:34:19;;;;;;;5.60;2.70;;;;;;;18.82;65.23;100546.54;1764364;79;21147;-70
2022/07/17 03:36:46;;;;;;;5.00;2.65;;;;;;;18.91;65.20;100535.70;1781879;79;21113;-70
2022/07/17 03:39:14;;;;;;;5.67;3.40;;;;;;;18.98;64.92;100535.84;1771599;80;20987;-70
2022/07/17 03:41:40;;;;;;;6.83;3.20;;;;;;;18.97;64.80;100543.50;1758326;80;21066;-70
2022/07/17 03:44:08;;;;;;;5.37;3.67;;;;;;;18.98;64.93;100556.32;1759986;80;21030;-70
2022/07/17 03:46:35;;;;;;;6.40;3.45;;;;;;;18.97;64.95;100560.83;1760138;80;21491;-70
2022/07/17 03:49:01;;;;;;;5.37;2.72;;;;;;;18.97;64.96;100562.16;1758449;80;21046;-70
2022/07/17 03:51:29;;;;;;;6.12;3.10;;;;;;;18.95;64.94;100549.52;1758617;80;21070;-69
2022/07/17 03:53:56;;;;;;;6.53;2.87;;;;;;;18.99;64.97;100547.33;1764023;80;21074;-69
2022/07/17 03:56:22;;;;;;;8.00;3.12;;;;;;;19.04;64.73;100544.97;1775992;80;21042;-70
2022/07/17 03:58:48;;;;;;;8.58;3.30;;;;;;;19.09;64.79;100543.94;1778395;79;21842;-70
2022/07/17 04:01:15;;;;;;;6.20;3.60;;;;;;;19.10;64.69;100546.44;1777670;80;21596;-70
2022/07/17 04:03:42;;;;;;;7.30;3.47;;;;;;;19.09;64.67;100551.43;1767567;79;21529;-70
2022/07/17 04:06:09;;;;;;;6.80;4.30;;;;;;;19.06;64.79;100553.14;1754812;79;21051;-70
2022/07/17 04:08:37;;;;;;;7.33;4.10;;;;;;;19.04;64.71;100561.79;1761711;80;21097;-71
2022/07/17 04:11:04;;;;;;;8.43;3.58;;;;;;;19.02;64.24;100564.32;1763660;79;21101;-70
2022/07/17 04:13:30;;;;;;;5.97;3.25;;;;;;;19.02;64.17;100560.31;1765148;79;21138;-70
2022/07/17 04:15:57;;;;;;;5.75;3.67;;;;;;;19.06;63.60;100561.62;1764368;79;21027;-70
2022/07/17 04:18:26;;;;;;;5.72;4.00;;;;;;;19.06;63.33;100558.47;1762508;80;21356;-70
2022/07/17 04:20:55;;;;;;;5.85;3.45;;;;;;;19.02;63.24;100565.14;1752651;80;21176;-70
2022/07/17 04:23:22;;;;;;;7.28;4.05;;;;;;;18.98;63.12;100561.66;1760323;80;21198;-70
2022/07/17 04:25:48;;;;;;;7.03;3.55;;;;;;;18.87;63.25;100560.21;1771904;79;21031;-70
2022/07/17 04:28:16;;;;;;;5.90;3.90;;;;;;;18.82;63.45;100558.53;1765728;79;21047;-70
2022/07/17 04:30:43;;;;;;;6.15;3.90;;;;;;;18.78;63.58;100561.20;1753335;80;21102;-71
2022/07/17 04:33:10;;;;;;;6.37;4.10;;;;;;;18.70;63.73;100565.56;1753703;80;21097;-70
2022/07/17 04:35:36;;;;;;;6.62;3.25;;;;;;;18.67;63.70;100567.23;1768957;80;21513;-70
2022/07/17 04:38:04;;;;;;;5.25;3.20;;;;;;;18.70;63.72;100566.89;1759923;79;21543;-71
2022/07/17 04:40:32;;;;;;;7.87;3.83;;;;;;;18.73;63.83;100572.40;1755676;79;21032;-71
2022/07/17 04:42:58;;;;;;;7.12;3.75;;;;;;;18.75;63.97;100569.05;1772129;80;21098;-70
2022/07/17 04:45:25;;;;;;;5.30;3.20;;;;;;;18.80;63.95;100571.21;1763215;79;21109;-70
2022/07/17 04:47:52;;;;;;;6.70;3.85;;;;;;;18.82;64.00;100567.86;1759642;80;21211;-70
2022/07/17 04:50:19;;;;;;;10.48;4.22;;;;;;;18.85;64.28;100561.72;1770848;80;21107;-70
2022/07/17 04:52:47;;;;;;;6.95;4.17;;;;;;;18.90;64.36;100563.87;1764539;80;21582;-71
2022/07/17 04:55:13;;;;;;;6.22;3.62;;;;;;;18.97;64.25;100554.67;1760353;79;21071;-70
2022/07/17 04:57:40;;;;;;;7.37;3.72;;;;;;;19.10;63.81;100559.77;1759463;80;21654;-70
2022/07/17 05:00:08;;;;;;;6.12;3.75;;;;;;;19.18;63.53;100552.23;1758292;79;21511;-71
2022/07/17 05:02:35;;;;;;;6.22;4.00;;;;;;;19.22;63.23;100548.72;1762425;79;21540;-70
2022/07/17 05:05:02;;;;;;;5.90;4.00;;;;;;;19.23;62.96;100543.21;1763705;80;22235;-70
2022/07/17 05:07:29;;;;;;;6.33;4.05;;;;;;;19.26;62.99;100541.50;1765998;79;21532;-70
2022/07/17 05:09:56;;;;;;;7.15;4.22;;;;;;;19.33;62.89;100536.80;1760364;79;21050;-70
2022/07/17 05:12:23;;;;;;;8.25;4.40;;;;;;;19.39;62.13;100538.77;1752883;79;21118;-71
2022/07/17 05:14:50;;;;;;;6.80;4.47;;;;;;;19.40;61.62;100547.94;1762271;79;21062;-70
2022/07/17 05:17:16;;;;;;;7.33;4.50;;;;;;;19.40;61.85;100552.42;1752438;79;21488;-71
2022/07/17 05:19:43;;;;;;;7.72;4.15;;;;;;;19.42;61.76;100547.25;1756252;79;21055;-71
2022/07/17 05:22:09;;;;;;;7.12;3.65;;;;;;;19.51;61.56;100544.02;1756711;79;21090;-70
2022/07/17 05:24:36;;;;;;;6.90;4.40;;;;;;;19.61;61.48;100542.45;1756407;79;21534;-71
2022/07/17 05:27:03;;;;;;;7.17;3.98;;;;;;;19.67;61.00;100541.23;1765840;79;21003;-70
2022/07/17 05:29:29;;;;;;;9.63;4.40;;;;;;;19.75;60.42;100551.55;1769073;79;21023;-70
2022/07/17 05:31:56;;;;;;;6.05;3.55;;;;;;;19.80;60.37;100552.69;1764602;80;21090;-70
2022/07/17 05:34:22;;;;;;;5.95;3.90;;;;;;;19.85;60.30;100546.80;1763325;80;21062;-69
2022/07/17 05:36:49;;;;;;;6.22;3.37;;;;;;;19.93;59.89;100548.58;1756939;80;22146;-70
2022/07/17 05:39:17;;;;;;;7.78;2.52;;;;;;;20.01;59.35;100549.84;1757332;79;21011;-71
2022/07/17 05:41:43;;;;;;;5.05;2.58;;;;;;;20.08;57.04;100548.10;1761001;80;21519;-69
2022/07/17 05:44:09;;;;;;;4.83;2.15;;;;;;;20.14;55.76;100544.72;1767702;79;21086;-70
2022/07/17 05:46:37;;;;;;;7.05;2.50;;;;;;;20.22;54.81;100553.14;1755316;79;21034;-70
2022/07/17 05:49:04;;;;;;;5.55;2.80;;;;;;;20.32;54.19;100546.20;1757229;79;21113;-70
2022/07/17 05:51:32;;;;;;;4.55;2.30;;;;;;;20.43;54.04;100543.09;1755772;80;21078;-70
2022/07/17 05:53:58;;;;;;;5.33;2.40;;;;;;;20.55;51.68;100538.11;1762400;79;21102;-71
2022/07/17 05:56:25;;;;;;;5.75;2.17;;;;;;;20.60;51.43;100541.87;1762452;79;21738;-70
2022/07/17 05:58:52;;;;;;;5.85;2.37;;;;;;;20.68;49.96;100543.67;1764751;79;21528;-71
2022/07/17 06:01:18;;;;;;;4.70;2.02;;;;;;;20.74;49.25;100544.77;1763456;79;21133;-70
2022/07/17 06:03:44;;;;;;;5.58;1.95;;;;;;;20.81;48.35;100549.68;1767346;79;21098;-70
2022/07/17 06:06:11;;;;;;;4.87;2.15;;;;;;;20.87;46.93;100546.79;1715504;82;21051;-70
2022/07/17 06:08:38;;;;;;;4.03;1.32;;;;;;;20.92;46.23;100544.38;1753351;80;21106;-70
2022/07/17 06:11:04;;;;;;;3.67;1.50;;;;;;;21.01;46.03;100541.91;1755904;80;21031;-69
2022/07/17 06:13:31;;;;;;;4.72;2.05;;;;;;;21.12;45.80;100546.78;1755524;80;21408;-70
2022/07/17 06:15:58;;;;;;;3.92;1.95;;;;;;;21.23;45.16;100545.97;1750081;80;21057;-70
2022/07/17 06:18:26;;;;;;;4.65;1.70;;;;;;;21.28;45.24;100548.91;1715609;82;21072;-70
2022/07/17 06:20:53;;;;;;;6.25;1.67;;;;;;;21.33;44.22;100554.03;1750735;80;21072;-70
2022/07/17 06:23:19;;;;;;;5.17;1.72;;;;;;;21.42;43.31;100552.58;1748058;80;21043;-70
2022/07/17 06:25:46;;;;;;;4.40;1.52;;;;;;;21.46;43.05;100544.47;1698507;83;21227;-69
2022/07/17 06:28:13;;;;;;;4.45;1.70;;;;;;;21.51;42.50;100556.28;1747772;80;21102;-70
2022/07/17 06:30:40;;;;;;;5.33;1.60;;;;;;;21.55;42.00;100562.60;1745881;80;21063;-69
2022/07/17 06:33:06;;;;;;;4.00;1.80;;;;;;;21.56;41.76;100577.66;1760519;80;21600;-70
2022/07/17 06:35:34;;;;;;;5.00;1.92;;;;;;;21.52;41.93;100571.86;1697379;83;21107;-70
2022/07/17 06:38:02;;;;;;;6.65;1.80;;;;;;;21.48;43.14;100566.55;1682352;83;21582;-70
2022/07/17 06:40:29;;;;;;;3.60;1.80;;;;;;;21.49;43.75;100569.55;1757620;80;21015;-70
2022/07/17 06:42:55;;;;;;;5.92;2.50;;;;;;;21.52;44.61;100560.62;1748962;80;21520;-72
2022/07/17 06:45:22;;;;;;;5.62;2.60;;;;;;;21.55;45.41;100552.71;1763752;80;22445;-69
2022/07/17 06:47:48;;;;;;;5.53;2.65;;;;;;;21.57;46.12;100554.71;1754753;80;21035;-70
2022/07/17 06:50:15;;;;;;;5.45;2.40;;;;;;;21.51;46.21;100572.87;1753919;79;22006;-70
2022/07/17 06:52:41;;;;;;;6.85;2.65;;;;;;;21.29;46.23;100567.45;1753698;80;21040;-70
2022/07/17 06:55:09;;;;;;;4.35;2.35;;;;;;;21.10;46.80;100576.09;1754005;80;21023;-70
2022/07/17 06:57:37;;;;;;;4.58;2.33;;;;;;;20.96;46.93;100579.09;1743968;79;21098;-69
2022/07/17 07:00:05;;;;;;;5.00;2.40;;;;;;;20.81;47.78;100593.80;1748851;80;21046;-69
2022/07/17 07:02:32;;;;;;;5.22;2.58;;;;;;;20.63;47.78;100597.35;1756673;80;22200;-70
2022/07/17 07:04:58;;;;;;;4.47;2.30;;;;;;;20.46;48.46;100600.19;1753902;79;21548;-69
2022/07/17 07:07:25;;;;;;;7.58;3.42;;;;;;;20.28;48.74;100580.48;1751839;80;21036;-70
2022/07/17 07:09:53;;;;;;;6.15;2.27;;;;;;;20.15;49.58;100601.12;1758633;79;21094;-69
2022/07/17 07:12:19;;;;;;;4.75;2.00;;;;;;;20.09;49.33;100609.02;1753306;80;22391;-70
2022/07/17 07:14:47;;;;;;;4.03;1.85;;;;;;;19.93;49.19;100626.84;1749745;80;21643;-69
2022/07/17 07:17:14;;;;;;;4.58;1.52;;;;;;;19.72;48.17;100636.81;1750196;80;21465;-69
2022/07/17 07:19:40;;;;;;;6.22;1.90;;;;;;;19.53;47.73;100633.25;1751772;79;21090;-70
2022/07/17 07:22:07;;;;;;;4.87;1.85;;;;;;;19.36;48.25;100631.17;1746384;79;21086;-70
2022/07/17 07:24:34;;;;;;;4.95;1.90;;;;;;;19.25;48.56;100647.89;1747029;80;21535;-70
2022/07/17 07:27:02;;;;;;;5.33;1.72;;;;;;;19.12;48.71;100643.10;1712150;82;21052;-70
2022/07/17 07:29:28;;;;;;;7.00;2.08;;;;;;;19.02;49.74;100649.14;1748528;79;21402;-70
2022/07/17 07:31:55;;;;;;;4.10;1.42;;;;;;;18.98;49.81;100658.98;1757735;79;21075;-70
2022/07/17 07:34:22;;;;;;;4.72;1.60;;;;;;;18.85;49.93;100651.53;1752484;79;21090;-70
2022/07/17 07:36:48;;;;;;;4.65;1.62;;;;;;;18.67;50.79;100647.70;1759927;79;21123;-70
2022/07/17 07:39:15;;;;;;;4.30;1.70;;;;;;;18.56;51.00;100653.72;1754733;80;21217;-70
2022/07/17 07:41:41;;;;;;;5.37;2.02;;;;;;;18.52;51.45;100657.70;1746921;80;21078;-70
2022/07/17 07:44:08;;;;;;;5.30;2.08;;;;;;;18.48;51.95;100658.23;1756506;79;21384;-70
2022/07/17 07:46:36;;;;;;;3.80;1.60;;;;;;;18.46;51.97;100658.88;1749544;79;21085;-71
2022/07/17 07:49:02;;;;;;;5.58;1.72;;;;;;;18.43;52.32;100655.23;1745667;79;21094;-70
2022/07/17 07:51:29;;;;;;;5.72;1.98;;;;;;;18.41;52.67;100667.86;1749126;80;21149;-71
2022/07/17 07:53:57;;;;;;;5.75;2.15;;;;;;;18.37;52.42;100677.55;1760424;80;21082;-71
2022/07/17 07:56:23;;;;;;;3.52;1.57;;;;;;;18.34;52.49;100667.70;1749252;79;21055;-71
2022/07/17 07:58:50;;;;;;;4.95;1.60;;;;;;;18.28;52.47;100669.72;1753619;80;21004;-71
2022/07/17 08:01:16;;;;;;;3.37;1.32;;;;;;;18.23;51.98;100673.38;1757792;79;21075;-71
2022/07/17 08:03:42;;;;;;;3.87;1.47;;;;;;;18.14;52.28;100670.71;1754264;79;21098;-70
2022/07/17 08:06:09;;;;;;;4.15;1.67;;;;;;;18.07;52.63;100673.70;1760455;80;21019;-71
2022/07/17 08:08:36;;;;;;;4.67;1.95;;;;;;;18.07;53.32;100675.52;1759690;80;21129;-71
2022/07/17 08:11:03;;;;;;;5.08;1.72;;;;;;;18.12;53.23;100668.72;1752726;79;21070;-72
2022/07/17 08:13:30;;;;;;;4.37;1.92;;;;;;;18.22;53.22;100671.70;1750043;80;21048;-70
2022/07/17 08:15:56;;;;;;;3.98;1.70;;;;;;;18.29;52.64;100662.90;1759311;79;21159;-70
2022/07/17 08:18:22;;;;;;;4.28;1.60;;;;;;;18.43;52.49;100661.39;1757488;80;21050;-69
2022/07/17 08:20:49;;;;;;;4.55;1.80;;;;;;;18.57;52.52;100664.69;1757604;79;21570;-70
2022/07/17 08:23:15;;;;;;;5.00;1.85;;;;;;;18.69;52.31;100664.34;1759239;80;21606;-70
2022/07/17 08:25:43;;;;;;;4.25;1.72;;;;;;;18.78;52.38;100669.16;1761454;80;21026;-70
2022/07/17 08:28:10;;;;;;;8.48;2.02;;;;;;;18.88;52.83;100677.86;1758745;80;21154;-70
2022/07/17 08:30:38;;;;;;;4.60;1.50;;;;;;;18.95;51.84;100682.84;1755548;79;21027;-70
2022/07/17 08:33:06;;;;;;;4.00;1.62;;;;;;;18.91;51.64;100664.16;1754805;80;21090;-70
2022/07/17 08:35:34;;;;;;;3.87;1.55;;;;;;;18.87;51.61;100672.19;1775044;79;20987;-70
2022/07/17 08:38:00;;;;;;;4.12;1.42;;;;;;;18.87;51.35;100664.19;1752798;80;21086;-70
2022/07/17 08:40:29;;;;;;;4.75;1.42;;;;;;;18.93;51.49;100670.19;1753839;79;21047;-69
2022/07/17 08:42:57;;;;;;;4.22;1.52;;;;;;;18.98;51.79;100669.17;1758696;79;21032;-70
2022/07/17 08:45:24;;;;;;;3.00;1.20;;;;;;;19.04;51.16;100665.80;1754901;79;21070;-70
2022/07/17 08:47:52;;;;;;;5.30;1.85;;;;;;;19.06;51.18;100664.30;1775168;80;21086;-70
2022/07/17 08:50:26;;;;;;;5.12;1.75;;;;;;;19.05;51.13;100663.47;1762488;80;21687;-70
2022/07/17 08:52:52;;;;;;;4.22;1.47;;;;;;;19.06;50.81;100666.48;1760289;80;21171;-69
2022/07/17 08:55:19;;;;;;;3.33;1.50;;;;;;;19.05;50.94;100666.65;1769812;80;21022;-70
2022/07/17 08:57:46;;;;;;;4.40;1.50;;;;;;;19.03;51.28;100662.81;1760525;80;21034;-69
2022/07/17 09:00:15;;;;;;;4.03;1.70;;;;;;;19.02;51.12;100661.66;1755298;80;21058;-70
2022/07/17 09:03:05;;;;;;;3.70;1.20;;;;;;;19.00;51.33;100658.33;1764485;79;21099;-70
2022/07/17 09:05:37;;;;;;;4.22;1.40;;;;;;;19.00;51.87;100661.00;1770686;79;21757;-70
2022/07/17 09:08:05;;;;;;;3.98;1.60;;;;;;;19.07;51.21;100654.79;1748099;81;21106;-70
2022/07/17 09:10:43;;;;;;;3.62;1.45;;;;;;;19.11;51.13;100646.80;1753684;81;21012;-70
2022/07/17 09:13:28;;;;;;;3.92;1.52;;;;;;;19.19;51.31;100652.58;1751066;81;21125;-69
2022/07/17 09:16:08;;;;;;;3.92;1.50;;;;;;;19.29;49.98;100649.71;1761677;81;21114;-69
2022/07/17 09:18:53;;;;;;;3.15;1.40;;;;;;;19.38;50.13;100644.66;1757145;81;21208;-70
2022/07/17 09:21:26;;;;;;;3.35;1.20;;;;;;;19.41;50.01;100652.83;1756146;80;21493;-70
2022/07/17 09:24:07;;;;;;;5.00;1.60;;;;;;;19.44;50.49;100639.96;1760890;79;21455;-70
2022/07/17 09:26:34;;;;;;;3.90;1.30;;;;;;;19.51;49.84;100645.44;1755704;81;21437;-69
2022/07/17 09:29:02;;;;;;;3.77;1.37;;;;;;;19.62;49.37;100645.56;1760233;81;21035;-70
2022/07/17 09:31:30;;;;;;;2.65;0.60;;;;;;;19.72;48.92;100655.50;1755018;80;21212;-70
2022/07/17 09:33:57;;;;;;;3.10;0.70;;;;;;;19.75;42.44;100649.81;1754095;80;21594;-70
2022/07/17 09:36:24;;;;;;;1.90;0.45;;;;;;;19.81;40.58;100659.80;1755550;81;22264;-69
2022/07/17 09:38:55;;;;;;;2.30;0.70;;;;;;;19.83;40.72;100652.44;1759779;81;21576;-69
2022/07/17 09:41:23;;;;;;;4.40;0.82;;;;;;;19.85;39.69;100653.60;1743591;81;21046;-68
2022/07/17 09:43:59;;;;;;;5.12;0.57;;;;;;;19.88;40.42;100647.09;1740571;81;22228;-67
2022/07/17 09:46:31;;;;;;;2.33;0.70;;;;;;;19.91;38.32;100642.22;1756026;81;21051;-67
2022/07/17 09:49:01;;;;;;;3.92;0.53;;;;;;;19.95;39.28;100650.70;1758050;80;21078;-68
2022/07/17 09:51:34;;;;;;;2.87;0.65;;;;;;;19.96;38.60;100652.38;1750379;81;21039;-68
2022/07/17 09:54:02;;;;;;;2.35;0.78;;;;;;;19.97;37.45;100653.53;1761818;81;21241;-68
2022/07/17 09:56:33;;;;;;;2.10;0.60;;;;;;;20.00;39.09;100665.17;1750030;81;22306;-68
2022/07/17 09:59:08;;;;;;;2.20;0.70;;;;;;;20.07;39.09;100655.94;1744413;81;21051;-68
2022/07/17 10:01:37;;;;;;;2.67;0.75;;;;;;;20.13;39.13;100653.91;1744583;81;21587;-68
2022/07/17 10:04:03;;;;;;;2.83;0.88;;;;;;;20.21;40.09;100649.02;1754252;81;21068;-69
2022/07/17 10:06:30;;;;;;;1.45;0.40;;;;;;;20.30;39.54;100661.80;1748439;80;21814;-69
2022/07/17 10:08:56;;;;;;;1.67;0.50;;;;;;;20.40;39.23;100662.38;1748449;80;21671;-69
2022/07/17 10:11:28;;;;;;;2.05;0.70;;;;;;;20.49;38.24;100657.27;1687964;82;21496;-69
2022/07/17 10:14:02;;;;;;;5.97;0.70;;;;;;;20.54;38.20;100658.91;1709796;83;21512;-70
2022/07/17 10:16:31;;;;;;;2.95;0.72;;;;;;;20.60;39.30;100668.86;1700438;83;21083;-69
2022/07/17 10:19:00;;;;;;;2.10;0.70;;;;;;;20.68;38.28;100661.80;1707089;83;21129;-70
2022/07/17 10:21:28;;;;;;;4.00;0.78;;;;;;;20.71;38.59;100650.26;1702966;83;21833;-69
2022/07/17 10:24:01;;;;;;;2.20;0.65;;;;;;;20.83;39.25;100653.31;1708414;82;21111;-69
2022/07/17 10:26:43;;;;;;;2.50;0.80;;;;;;;21.01;39.05;100661.47;1757472;80;21519;-70
2022/07/17 10:29:37;;;;;;;2.22;0.70;;;;;;;21.12;38.56;100662.34;1754141;79;21055;-70
2022/07/17 10:32:18;;;;;;;2.72;0.62;;;;;;;21.10;38.44;100659.86;1756775;80;21047;-70
2022/07/17 10:34:51;;;;;;;4.33;0.80;;;;;;;21.07;38.84;100640.16;1754287;80;21166;-70
2022/07/17 10:37:27;;;;;;;2.65;0.90;;;;;;;21.14;39.22;100646.41;1751391;80;21062;-70
2022/07/17 10:40:19;;;;;;;3.62;0.80;;;;;;;21.24;39.64;100638.62;1756099;80;21082;-69
2022/07/17 10:42:54;;;;;;;5.03;0.80;;;;;;;21.33;39.17;100638.34;1752203;80;21050;-70
2022/07/17 10:45:34;;;;;;;3.67;0.85;;;;;;;21.37;39.25;100627.23;1750760;80;22397;-70
2022/07/17 10:48:08;;;;;;;2.30;0.60;;;;;;;21.48;38.14;100631.62;1745700;80;21824;-70
2022/07/17 10:50:48;;;;;;;1.95;0.60;;;;;;;21.57;37.55;100616.30;1714651;82;21028;-69
2022/07/17 10:53:31;;;;;;;5.87;1.05;;;;;;;21.67;38.17;100623.50;1754720;79;21520;-70
2022/07/17 10:56:05;;;;;;;2.25;0.70;;;;;;;21.81;39.16;100612.93;1751167;80;21095;-70
2022/07/17 10:58:40;;;;;;;3.35;0.90;;;;;;;21.88;38.36;100620.52;1749652;80;21038;-69
2022/07/17 11:01:12;;;;;;;1.75;0.65;;;;;;;21.94;38.89;100622.92;1748283;80;21601;-70
2022/07/17 11:03:53;;;;;;;3.17;0.82;;;;;;;22.01;36.50;100608.58;1764793;79;21728;-70
2022/07/17 11:06:31;;;;;;;2.22;0.80;;;;;;;22.02;35.99;100621.45;1756447;79;21035;-70
2022/07/17 11:09:00;;;;;;;1.67;0.50;;;;;;;22.07;36.21;100631.94;1757508;79;21079;-69
2022/07/17 11:11:39;;;;;;;1.92;0.70;;;;;;;22.06;36.63;100626.24;1761845;79;21430;-69
2022/07/17 11:14:11;;;;;;;2.67;0.70;;;;;;;22.12;36.77;100629.99;1774305;79;21721;-69
2022/07/17 11:16:59;;;;;;;1.75;0.60;;;;;;;22.22;36.84;100621.11;1766914;80;21114;-69
2022/07/17 11:19:34;;;;;;;2.92;0.90;;;;;;;22.29;36.08;100614.50;1762044;80;21702;-68
2022/07/17 11:22:05;;;;;;;1.80;0.53;;;;;;;22.31;35.14;100617.83;1757028;80;21555;-69
2022/07/17 11:24:39;;;;;;;1.52;0.47;;;;;;;22.30;35.09;100616.69;1759640;79;21541;-70
2022/07/17 11:27:06;;;;;;;3.67;1.07;;;;;;;22.29;35.54;100617.17;1761501;79;21544;-69
2022/07/17 11:29:39;;;;;;;1.57;0.45;;;;;;;22.29;35.34;100625.73;1758869;80;21042;-70
2022/07/17 11:32:06;;;;;;;2.30;0.60;;;;;;;22.21;35.26;100608.75;1761188;79;21043;-69
2022/07/17 11:34:33;;;;;;;1.70;0.57;;;;;;;22.17;35.53;100624.88;1762607;80;21103;-69
2022/07/17 11:37:01;;;;;;;2.27;0.40;;;;;;;22.16;35.30;100637.16;1755782;80;21114;-70
2022/07/17 11:39:45;;;;;;;1.30;0.53;;;;;;;22.06;36.06;100629.45;1774454;79;22135;-69
2022/07/17 11:42:15;;;;;;;2.60;0.80;;;;;;;21.95;36.63;100629.44;1778126;79;21085;-69